Time;durP1;ratioP1;P1;durP2;ratioP2;P2;SDS_P1;SDS_P2;PMS_P1;PMS_P2;Temp;Humidity;BMP_temperature;BMP_pressure;BME280_temperature;BME280_humidity;BME280_pressure;Samples;Min_cycle;Max_cycle;Signal;HPM_P1;HPM_P2
2022/08/23 00:01:48;;;;;;;7.33;4.50;;;16.70;54.60;;;;;;6228362;23;20433;-84
2022/08/23 00:04:17;;;;;;;9.30;4.63;;;16.60;55.50;;;;;;6218110;23;20430;-84
2022/08/23 00:06:46;;;;;;;9.43;5.37;;;16.60;56.10;;;;;;6218744;23;20496;-84
2022/08/23 00:09:14;;;;;;;10.70;4.70;;;16.50;57.70;;;;;;6228203;23;20796;-84
2022/08/23 00:11:43;;;;;;;10.80;5.10;;;16.40;57.50;;;;;;6228357;23;20417;-84
2022/08/23 00:14:12;;;;;;;11.60;5.30;;;16.30;58.40;;;;;;6218327;23;20433;-83
2022/08/23 00:16:41;;;;;;;10.33;4.90;;;16.30;57.90;;;;;;6218661;23;20514;-84
2022/08/23 00:19:10;;;;;;;10.43;5.47;;;16.30;58.40;;;;;;6218018;23;20413;-84
2022/08/23 00:21:38;;;;;;;14.00;5.30;;;16.20;58.30;;;;;;6217681;23;20437;-84
2022/08/23 00:24:06;;;;;;;14.10;5.57;;;16.10;60.20;;;;;;6217633;23;20522;-83
2022/08/23 00:26:48;;;;;;;10.57;5.33;;;16.00;61.50;;;;;;6227956;23;20406;-85
2022/08/23 00:29:15;;;;;;;11.43;4.90;;;16.00;61.60;;;;;;6217983;23;20397;-84
2022/08/23 00:31:43;;;;;;;13.43;6.40;;;15.90;62.20;;;;;;6217777;23;20421;-85
2022/08/23 00:34:10;;;;;;;10.47;6.03;;;15.80;62.60;;;;;;6227592;23;20946;-85
2022/08/23 00:36:37;;;;;;;10.23;6.20;;;15.70;64.70;;;;;;6217979;23;20409;-84
2022/08/23 00:39:04;;;;;;;14.10;5.73;;;15.50;64.20;;;;;;6218457;23;20408;-84
2022/08/23 00:41:31;;;;;;;8.30;5.33;;;15.50;66.00;;;;;;6217892;23;20421;-84
2022/08/23 00:49:36;;;;;;;12.10;7.03;;;15.60;68.90;;;;;;6218000;23;20391;-84
2022/08/23 00:52:08;;;;;;;13.03;7.20;;;15.60;69.90;;;;;;6217753;23;20418;-84
2022/08/23 00:54:37;;;;;;;17.93;7.17;;;15.40;70.60;;;;;;6217291;23;20434;-83
2022/08/23 00:57:07;;;;;;;11.93;6.40;;;15.40;72.00;;;;;;6217846;23;20823;-84
2022/08/23 00:59:34;;;;;;;14.90;7.00;;;15.50;70.80;;;;;;6217889;23;20424;-83
2022/08/23 01:02:03;;;;;;;8.63;6.40;;;15.30;71.30;;;;;;6218208;23;20417;-84
2022/08/23 01:04:34;;;;;;;12.60;7.17;;;15.40;71.90;;;;;;6217679;23;20460;-84
2022/08/23 01:07:07;;;;;;;11.93;6.20;;;15.50;73.90;;;;;;6217698;23;20420;-84
2022/08/23 01:09:34;;;;;;;13.90;6.60;;;15.30;71.70;;;;;;6217451;23;20406;-84
2022/08/23 01:12:06;;;;;;;12.23;6.67;;;15.20;71.10;;;;;;6218319;23;20510;-84
2022/08/23 01:14:38;;;;;;;11.53;8.17;;;15.10;71.80;;;;;;6217650;23;20435;-84
2022/08/23 01:17:12;;;;;;;11.00;7.70;;;15.10;72.70;;;;;;6217771;23;20420;-84
2022/08/23 01:19:48;;;;;;;10.93;6.70;;;15.00;73.60;;;;;;6217435;23;20396;-84
2022/08/23 01:22:21;;;;;;;12.93;5.90;;;15.00;74.30;;;;;;6217452;23;20487;-84
2022/08/23 01:24:50;;;;;;;15.20;7.20;;;14.90;72.10;;;;;;6217409;23;20548;-84
2022/08/23 01:27:17;;;;;;;20.00;8.00;;;14.90;71.80;;;;;;6217813;23;20431;-84
2022/08/23 01:29:44;;;;;;;14.17;12.77;;;14.90;73.60;;;;;;6217506;23;20845;-84
2022/08/23 01:32:13;;;;;;;21.60;14.27;;;14.90;78.90;;;;;;6217473;23;20412;-84
2022/08/23 01:34:40;;;;;;;20.90;13.10;;;15.00;81.50;;;;;;6216927;23;20442;-84
2022/08/23 01:37:08;;;;;;;15.70;8.67;;;15.00;81.00;;;;;;6217745;23;20434;-84
2022/08/23 01:39:35;;;;;;;11.63;8.37;;;15.00;78.00;;;;;;6217914;23;20424;-84
2022/08/23 01:42:04;;;;;;;9.90;6.10;;;15.00;75.80;;;;;;6227534;23;20499;-84
2022/08/23 01:44:31;;;;;;;14.20;10.10;;;14.90;72.10;;;;;;6217185;23;20442;-84
2022/08/23 01:46:58;;;;;;;12.43;10.40;;;14.90;78.60;;;;;;6216606;23;20419;-84
2022/08/23 01:49:25;;;;;;;14.20;9.27;;;14.80;78.90;;;;;;6217898;23;20818;-84
2022/08/23 01:51:52;;;;;;;13.33;7.43;;;15.00;77.50;;;;;;6217845;23;20411;-84
2022/08/23 01:54:18;;;;;;;19.60;8.00;;;14.80;71.60;;;;;;6216957;23;20431;-84
2022/08/23 01:56:45;;;;;;;23.53;10.97;;;14.80;73.40;;;;;;6217673;23;20418;-84
2022/08/23 01:59:13;;;;;;;14.40;8.90;;;14.70;75.40;;;;;;6217518;23;20761;-84
2022/08/23 02:01:40;;;;;;;16.20;10.00;;;14.60;77.30;;;;;;6218123;23;20427;-84
2022/08/23 02:04:07;;;;;;;21.47;10.67;;;14.50;77.00;;;;;;6226976;23;20436;-84
2022/08/23 02:06:34;;;;;;;16.63;12.10;;;14.60;79.00;;;;;;6217646;23;20412;-84
2022/08/23 02:09:00;;;;;;;18.47;16.53;;;14.60;80.00;;;;;;6217133;23;20438;-84
2022/08/23 02:11:30;;;;;;;24.53;15.60;;;14.50;81.10;;;;;;6217335;23;20412;-84
2022/08/23 02:13:59;;;;;;;21.57;19.70;;;14.60;81.20;;;;;;6217062;23;20446;-84
2022/08/23 02:16:29;;;;;;;19.70;17.40;;;14.40;83.50;;;;;;6216659;23;20419;-84
2022/08/23 02:18:57;;;;;;;18.03;16.37;;;14.50;83.60;;;;;;6217089;23;20397;-83
2022/08/23 02:21:25;;;;;;;26.40;20.30;;;14.60;83.60;;;;;;6217042;23;20419;-84
2022/08/23 02:23:51;;;;;;;22.07;19.90;;;14.60;85.20;;;;;;6217182;23;20432;-84
2022/08/23 02:26:18;;;;;;;23.47;20.83;;;14.50;83.90;;;;;;6217149;23;20727;-84
2022/08/23 02:28:45;;;;;;;15.17;13.60;;;14.40;86.30;;;;;;6217111;23;20432;-84
2022/08/23 02:31:12;;;;;;;21.50;19.50;;;14.40;82.40;;;;;;6227535;23;20412;-84
2022/08/23 02:33:41;;;;;;;27.40;25.33;;;14.50;85.90;;;;;;6217831;23;20435;-84
2022/08/23 02:36:08;;;;;;;28.27;25.13;;;14.30;87.30;;;;;;6218414;23;20416;-84
2022/08/23 02:38:35;;;;;;;35.03;32.57;;;14.30;88.50;;;;;;6219437;23;20416;-84
2022/08/23 02:41:02;;;;;;;45.37;42.60;;;14.20;88.40;;;;;;6219157;23;20420;-84
2022/08/23 02:43:28;;;;;;;26.30;24.00;;;14.30;90.40;;;;;;6229653;23;20428;-84
2022/08/23 02:45:55;;;;;;;32.23;30.03;;;14.20;88.90;;;;;;6218934;23;20408;-83
2022/08/23 02:48:22;;;;;;;52.03;48.57;;;14.10;89.10;;;;;;6219618;23;20746;-84
2022/08/23 02:50:51;;;;;;;73.77;70.53;;;14.20;90.00;;;;;;6219562;23;20736;-84
2022/08/23 02:53:18;;;;;;;68.03;64.10;;;14.10;91.50;;;;;;6229062;23;20416;-84
2022/08/23 02:55:45;;;;;;;60.27;56.30;;;14.00;91.80;;;;;;6218829;23;20906;-84
2022/08/23 02:58:12;;;;;;;52.27;49.10;;;14.10;91.70;;;;;;6219767;23;20409;-84
2022/08/23 03:00:39;;;;;;;50.83;47.50;;;14.00;92.60;;;;;;6219890;23;20412;-83
2022/08/23 03:03:06;;;;;;;38.53;36.30;;;14.10;92.50;;;;;;6219811;23;20419;-84
2022/08/23 03:05:33;;;;;;;36.03;33.43;;;14.20;91.50;;;;;;6218937;23;20524;-84
2022/08/23 03:08:01;;;;;;;45.43;42.20;;;14.00;90.70;;;;;;6229699;23;20519;-84
2022/08/23 03:10:28;;;;;;;41.03;38.40;;;14.00;91.60;;;;;;6230194;23;20415;-84
2022/08/23 03:12:55;;;;;;;50.07;46.67;;;14.00;91.90;;;;;;6229329;23;20432;-84
2022/08/23 03:15:22;;;;;;;58.77;55.63;;;13.90;92.00;;;;;;6218421;23;20505;-84
2022/08/23 03:17:49;;;;;;;65.83;62.23;;;13.90;92.60;;;;;;6219537;23;20420;-84
2022/08/23 03:20:16;;;;;;;49.50;46.33;;;13.80;92.50;;;;;;6219553;23;20828;-84
2022/08/23 03:22:42;;;;;;;52.93;50.03;;;13.90;92.00;;;;;;6219555;23;20416;-84
2022/08/23 03:25:11;;;;;;;54.03;50.83;;;13.80;92.50;;;;;;6220356;23;20438;-84
2022/08/23 03:27:37;;;;;;;43.93;40.80;;;13.80;92.90;;;;;;6219680;23;20439;-84
2022/08/23 03:30:05;;;;;;;53.37;50.30;;;13.80;92.50;;;;;;6220703;23;20787;-83
2022/08/23 03:32:32;;;;;;;48.67;45.57;;;13.80;93.20;;;;;;6220240;23;20418;-84
2022/08/23 03:34:58;;;;;;;97.00;91.93;;;13.80;92.60;;;;;;6218370;23;20436;-84
2022/08/23 03:37:25;;;;;;;92.63;88.07;;;13.70;93.70;;;;;;6229545;23;20416;-84
2022/08/23 03:39:52;;;;;;;134.13;128.67;;;13.70;94.10;;;;;;6219251;23;20419;-84
2022/08/23 03:42:20;;;;;;;97.67;92.70;;;13.90;94.80;;;;;;6218879;23;20412;-84
2022/08/23 03:44:47;;;;;;;89.90;85.37;;;13.90;93.80;;;;;;6218475;23;20518;-83
2022/08/23 03:47:14;;;;;;;56.40;53.30;;;13.80;93.80;;;;;;6218894;23;20751;-84
2022/08/23 03:49:40;;;;;;;60.37;57.00;;;13.80;92.60;;;;;;6218618;23;20523;-84
2022/08/23 03:52:08;;;;;;;59.63;56.53;;;13.70;92.70;;;;;;6218717;23;20745;-84
2022/08/23 03:54:35;;;;;;;51.93;48.97;;;13.70;93.40;;;;;;6218627;23;20463;-84
2022/08/23 03:57:03;;;;;;;47.07;43.73;;;13.70;93.00;;;;;;6218271;23;20418;-83
2022/08/23 03:59:33;;;;;;;74.60;70.10;;;13.90;92.60;;;;;;6218523;23;20408;-84
2022/08/23 04:02:00;;;;;;;102.77;98.07;;;13.70;93.10;;;;;;6217767;23;20447;-85
2022/08/23 04:04:27;;;;;;;108.60;103.60;;;13.80;93.90;;;;;;6218167;23;20543;-84
2022/08/23 04:06:55;;;;;;;80.00;76.03;;;13.70;94.30;;;;;;6218342;23;20412;-85
2022/08/23 04:09:22;;;;;;;95.40;90.80;;;13.70;93.60;;;;;;6221006;23;20490;-84
2022/08/23 04:11:50;;;;;;;158.87;151.67;;;13.60;94.60;;;;;;6219434;23;20412;-84
2022/08/23 04:14:16;;;;;;;160.47;153.97;;;13.70;95.70;;;;;;6219269;23;20436;-84
2022/08/23 04:16:45;;;;;;;157.27;151.10;;;13.80;95.90;;;;;;6231070;23;20818;-84
2022/08/23 04:19:14;;;;;;;162.30;155.20;;;13.70;96.00;;;;;;6221577;23;21002;-84
2022/08/23 04:21:44;;;;;;;92.57;88.30;;;13.70;96.30;;;;;;6218929;23;20418;-84
2022/08/23 04:24:10;;;;;;;122.27;116.57;;;13.70;94.50;;;;;;6229767;23;20467;-84
2022/08/23 04:26:39;;;;;;;163.50;157.13;;;13.70;95.40;;;;;;6219447;23;20412;-84
2022/08/23 04:29:06;;;;;;;157.57;150.93;;;13.60;96.10;;;;;;6219323;23;20776;-84
2022/08/23 04:31:33;;;;;;;203.43;195.33;;;13.50;96.50;;;;;;6218985;23;20412;-84
2022/08/23 04:34:02;;;;;;;221.43;211.33;;;13.50;98.30;;;;;;6219497;23;20428;-84
2022/08/23 04:36:31;;;;;;;250.90;239.10;;;13.70;99.20;;;;;;6220456;23;20419;-84
2022/08/23 04:38:58;;;;;;;197.97;189.30;;;13.70;99.90;;;;;;6217987;23;20921;-84
2022/08/23 04:44:09;;;;;;;120.63;115.47;;;13.70;98.10;;;;;;6218985;23;20435;-84
2022/08/23 04:46:36;;;;;;;106.33;101.43;;;13.70;97.70;;;;;;6220500;23;20416;-84
2022/08/23 04:49:04;;;;;;;76.73;72.70;;;13.70;97.50;;;;;;6220682;23;20460;-84
2022/08/23 04:51:31;;;;;;;105.30;100.10;;;13.80;95.90;;;;;;6221102;23;20414;-83
2022/08/23 04:53:57;;;;;;;87.77;83.07;;;13.80;95.90;;;;;;6221485;23;20432;-84
2022/08/23 04:56:24;;;;;;;111.70;106.53;;;13.80;95.90;;;;;;6219270;23;20439;-83
2022/08/23 04:58:51;;;;;;;91.37;87.43;;;13.80;95.90;;;;;;6219630;23;20420;-84
2022/08/23 05:01:18;;;;;;;57.73;54.00;;;13.90;95.50;;;;;;6220526;23;20795;-84
2022/08/23 05:03:45;;;;;;;60.33;56.87;;;13.80;93.90;;;;;;6219952;23;20443;-84
2022/08/23 05:06:13;;;;;;;83.47;78.50;;;13.70;94.00;;;;;;6218996;23;20415;-83
2022/08/23 05:08:40;;;;;;;147.10;140.70;;;13.70;94.60;;;;;;6219935;23;20463;-84
2022/08/23 05:11:12;;;;;;;206.40;196.20;;;13.80;95.90;;;;;;6219621;23;20407;-85
2022/08/23 05:13:39;;;;;;;217.97;208.30;;;13.90;97.40;;;;;;6228531;23;20444;-84
2022/08/23 05:16:06;;;;;;;205.17;196.37;;;14.10;97.30;;;;;;6219765;23;20412;-80
2022/08/23 05:18:34;;;;;;;166.33;158.47;;;14.40;96.80;;;;;;6218400;23;20392;-80
2022/08/23 05:21:01;;;;;;;89.23;84.53;;;14.50;95.70;;;;;;6219941;23;20434;-80
2022/08/23 05:23:29;;;;;;;69.30;65.73;;;14.80;94.20;;;;;;6219378;23;20407;-80
2022/08/23 05:25:55;;;;;;;86.07;81.43;;;14.80;93.30;;;;;;6219315;23;20415;-80
2022/08/23 05:28:25;;;;;;;48.23;45.43;;;14.90;93.30;;;;;;6220802;23;20950;-81
2022/08/23 05:30:57;;;;;;;18.13;16.23;;;15.30;93.20;;;;;;6219039;23;20431;-80
2022/08/23 05:33:24;;;;;;;24.63;10.77;;;15.70;90.60;;;;;;6219524;23;20725;-81
2022/08/23 05:35:51;;;;;;;19.20;9.70;;;16.10;88.40;;;;;;6218774;23;20748;-80
2022/08/23 05:38:27;;;;;;;20.53;9.47;;;16.30;84.90;;;;;;6222889;23;20405;-84
2022/08/23 05:41:00;;;;;;;18.17;8.87;;;16.70;82.90;;;;;;6232246;23;20429;-84
2022/08/23 05:43:28;;;;;;;22.77;11.50;;;17.00;78.40;;;;;;6217825;23;20399;-83
2022/08/23 06:00:03;;;;;;;20.33;10.20;;;18.50;68.70;;;;;;5883405;23;20420;-83
2022/08/23 06:06:16;;;;;;;19.10;9.03;;;18.50;67.50;;;;;;6147329;23;20420;-84
2022/08/23 06:28:04;;;;;;;18.17;10.57;;;18.20;68.60;;;;;;6147228;23;20450;-85
2022/08/23 06:31:05;;;;;;;26.47;10.10;;;18.20;70.50;;;;;;6237611;23;20473;-86
2022/08/23 06:34:04;;;;;;;19.30;9.90;;;18.30;70.90;;;;;;6086023;23;20449;-84
2022/08/23 06:39:58;;;;;;;22.47;9.80;;;18.30;68.60;;;;;;6224065;23;20449;-85
2022/08/23 06:42:34;;;;;;;24.23;10.70;;;18.40;67.40;;;;;;6238699;23;20384;-86
2022/08/23 06:45:18;;;;;;;23.33;10.07;;;18.70;66.20;;;;;;6234321;23;20429;-85
2022/08/23 06:56:26;;;;;;;19.77;10.57;;;19.70;63.60;;;;;;6234230;23;20447;-85
2022/08/23 06:59:19;;;;;;;44.57;9.20;;;20.00;62.80;;;;;;6236200;23;20411;-85
2022/08/23 07:02:11;;;;;;;;;;;;;;;;;;;;;
2022/08/23 07:04:59;;;;;;;17.60;8.47;;;20.40;53.60;;;;;;6235223;23;20448;-85
2022/08/23 07:10:18;;;;;;;13.97;9.40;;;21.00;51.20;;;;;;6232976;23;20449;-85
2022/08/23 07:12:48;;;;;;;25.93;9.33;;;21.30;50.00;;;;;;6234509;23;20421;-85
2022/08/23 07:15:30;;;;;;;21.83;9.33;;;21.70;48.20;;;;;;6225971;23;20442;-86
2022/08/23 07:18:04;;;;;;;14.37;7.50;;;21.70;45.90;;;;;;6236001;23;21055;-85
2022/08/23 07:21:06;;;;;;;20.67;8.07;;;21.80;44.60;;;;;;6235431;23;20398;-85
2022/08/23 07:23:54;;;;;;;10.97;6.27;;;22.10;42.30;;;;;;6234889;23;20481;-85
2022/08/23 07:26:34;;;;;;;21.00;6.57;;;22.10;40.20;;;;;;6236241;23;20805;-85
2022/08/23 07:29:18;;;;;;;15.20;5.77;;;22.00;39.90;;;;;;6225212;23;20426;-85
2022/08/23 07:32:09;;;;;;;16.40;6.90;;;22.00;37.20;;;;;;6236891;23;20425;-85
2022/08/23 07:34:44;;;;;;;21.70;7.10;;;22.10;40.10;;;;;;6224943;23;20524;-85
2022/08/23 07:37:37;;;;;;;;;;;;;;;;;;;;;
2022/08/23 07:40:13;;;;;;;9.83;5.13;;;22.20;40.30;;;;;;6234037;23;20483;-85
2022/08/23 07:43:14;;;;;;;10.87;5.10;;;22.20;38.60;;;;;;6233672;23;20420;-85
2022/08/23 07:46:13;;;;;;;17.17;5.80;;;22.30;37.50;;;;;;6200204;23;20507;-84
2022/08/23 07:49:05;;;;;;;15.80;6.00;;;22.50;37.70;;;;;;6234598;23;20408;-85
2022/08/23 07:51:46;;;;;;;11.27;5.13;;;22.60;37.70;;;;;;6210640;23;20414;-85
2022/08/23 07:54:40;;;;;;;17.37;5.30;;;22.70;37.10;;;;;;6234076;23;20454;-85
2022/08/23 07:57:39;;;;;;;16.40;5.67;;;22.80;36.90;;;;;;6232347;23;20417;-85
2022/08/23 08:06:15;;;;;;;9.80;5.00;;;23.90;31.40;;;;;;6222934;23;20443;-86
2022/08/23 08:09:21;;;;;;;20.77;5.67;;;24.40;30.00;;;;;;6232370;23;20417;-85
2022/08/23 08:11:51;;;;;;;12.13;4.90;;;24.80;27.90;;;;;;6233403;23;20375;-84
2022/08/23 08:14:20;;;;;;;9.30;4.70;;;25.00;25.20;;;;;;6227253;23;20961;-83
2022/08/23 08:16:51;;;;;;;15.38;5.15;;;25.20;25.80;;;;;;6219021;23;20414;-84
2022/08/23 08:19:30;;;;;;;14.27;5.40;;;25.50;23.60;;;;;;6221709;23;20596;-85
2022/08/23 08:22:06;;;;;;;16.97;4.83;;;26.00;23.60;;;;;;6230813;23;20415;-85
2022/08/23 08:24:34;;;;;;;12.67;5.43;;;26.40;21.30;;;;;;6229594;23;20430;-85
2022/08/23 08:27:01;;;;;;;11.60;4.70;;;26.40;22.50;;;;;;6228975;23;20411;-85
2022/08/23 08:29:31;;;;;;;12.00;4.70;;;26.80;22.70;;;;;;6219275;23;20505;-84
2022/08/23 08:31:59;;;;;;;12.33;4.83;;;27.10;18.70;;;;;;6217853;23;20404;-84
2022/08/23 08:34:26;;;;;;;10.60;4.47;;;27.30;17.00;;;;;;6218971;23;20772;-84
2022/08/23 08:36:57;;;;;;;15.90;4.50;;;27.40;17.10;;;;;;6221217;23;20527;-85
2022/08/23 08:39:27;;;;;;;13.33;5.30;;;27.60;15.70;;;;;;6227448;23;20399;-85
2022/08/23 08:42:23;;;;;;;10.90;4.17;;;27.50;12.90;;;;;;6219048;23;20415;-84
2022/08/23 08:44:55;;;;;;;9.77;4.60;;;27.60;12.30;;;;;;6229164;23;20424;-85
2022/08/23 08:47:33;;;;;;;13.10;4.53;;;27.60;12.80;;;;;;6228993;23;20389;-84
2022/08/23 08:50:09;;;;;;;14.03;4.63;;;27.90;12.40;;;;;;6219438;23;20447;-85
2022/08/23 08:52:41;;;;;;;11.17;4.33;;;28.40;10.50;;;;;;6229852;23;20363;-85
2022/08/23 08:55:15;;;;;;;12.90;3.80;;;28.50;10.00;;;;;;6219249;23;20470;-85
2022/08/23 08:57:45;;;;;;;17.57;4.33;;;28.80;10.20;;;;;;6219011;23;20403;-84
2022/08/23 09:00:20;;;;;;;10.60;3.87;;;29.00;8.20;;;;;;6229171;23;20408;-84
2022/08/23 09:02:49;;;;;;;14.53;4.00;;;29.30;7.40;;;;;;6218595;23;20482;-84
2022/08/23 09:05:20;;;;;;;14.33;3.80;;;29.60;5.70;;;;;;6218701;23;20415;-85
2022/08/23 09:08:00;;;;;;;11.83;3.83;;;30.10;3.40;;;;;;6220158;23;20451;-85
2022/08/23 09:10:53;;;;;;;13.37;4.60;;;30.00;2.60;;;;;;6220380;23;20938;-85
2022/08/23 09:13:54;;;;;;;18.23;5.40;;;30.20;3.10;;;;;;6219700;23;20938;-85
2022/08/23 09:16:39;;;;;;;8.67;3.97;;;30.10;3.00;;;;;;6214893;23;20411;-85
2022/08/23 09:19:10;;;;;;;12.43;3.70;;;30.40;1.00;;;;;;6219936;23;20755;-84
2022/08/23 09:21:44;;;;;;;17.00;3.67;;;31.00;1.00;;;;;;6229286;23;20428;-84
2022/08/23 09:24:17;;;;;;;12.83;4.30;;;31.30;1.00;;;;;;6216399;23;20406;-85
2022/08/23 09:26:44;;;;;;;11.70;4.30;;;31.30;1.00;;;;;;6216793;23;20475;-82
2022/08/23 09:29:22;;;;;;;18.07;3.90;;;30.90;1.00;;;;;;6227963;23;20431;-83
2022/08/23 09:31:52;;;;;;;10.37;5.37;;;31.00;1.00;;;;;;6216591;23;20396;-84
2022/08/23 09:34:22;;;;;;;11.73;5.50;;;31.20;1.00;;;;;;6217629;23;20460;-83
2022/08/23 09:37:05;;;;;;;16.00;4.07;;;31.60;1.00;;;;;;6226604;23;20415;-84
2022/08/23 09:39:34;;;;;;;11.90;5.23;;;31.60;1.00;;;;;;6227201;23;20420;-84
2022/08/23 09:42:06;;;;;;;11.17;3.50;;;31.90;1.00;;;;;;6217966;23;20469;-83
2022/08/23 09:44:41;;;;;;;11.03;3.57;;;31.60;1.00;;;;;;6229979;23;20459;-83
2022/08/23 09:47:11;;;;;;;15.20;3.20;;;31.70;1.00;;;;;;6228456;23;20386;-84
2022/08/23 09:49:41;;;;;;;11.40;3.40;;;31.90;1.00;;;;;;6220689;23;20366;-83
2022/08/23 09:52:26;;;;;;;11.33;4.00;;;32.40;1.00;;;;;;6219497;23;20387;-83
2022/08/23 09:54:59;;;;;;;9.80;3.60;;;32.90;1.00;;;;;;6217622;23;20443;-83
2022/08/23 09:57:29;;;;;;;13.80;4.47;;;32.80;1.00;;;;;;6220031;23;20418;-83
2022/08/23 10:00:00;;;;;;;12.03;3.97;;;33.00;1.00;;;;;;6218876;23;20741;-83
2022/08/23 10:02:31;;;;;;;10.00;3.17;;;33.40;1.00;;;;;;6218229;23;20371;-83
2022/08/23 10:05:02;;;;;;;9.03;3.10;;;33.90;1.00;;;;;;6218387;23;20497;-84
2022/08/23 10:07:34;;;;;;;10.77;3.40;;;34.00;1.00;;;;;;6228623;23;20390;-85
2022/08/23 10:10:30;;;;;;;10.60;2.87;;;34.00;1.00;;;;;;6218003;23;20837;-84
2022/08/23 10:12:58;;;;;;;11.60;3.30;;;34.50;1.00;;;;;;6167328;23;20386;-85
2022/08/23 10:15:35;;;;;;;8.23;3.40;;;34.60;1.00;;;;;;6219015;23;20428;-84
2022/08/23 10:18:07;;;;;;;9.60;3.30;;;34.70;1.00;;;;;;6220209;23;20415;-83
2022/08/23 10:20:45;;;;;;;10.87;3.80;;;34.40;1.00;;;;;;6218228;23;20810;-83
2022/08/23 10:23:23;;;;;;;11.70;3.73;;;33.60;1.00;;;;;;6218475;23;20919;-82
2022/08/23 10:25:55;;;;;;;7.07;2.87;;;33.40;1.00;;;;;;6227283;23;20415;-83
2022/08/23 10:31:31;;;;;;;7.20;2.57;;;34.20;1.00;;;;;;6217569;23;20405;-84
2022/08/23 10:34:10;;;;;;;13.83;3.23;;;34.00;1.00;;;;;;6228332;23;20417;-82
2022/08/23 10:36:55;;;;;;;11.03;3.37;;;34.80;1.00;;;;;;6217444;23;20464;-83
2022/08/23 10:39:26;;;;;;;11.43;4.17;;;35.20;1.00;;;;;;6227288;23;20421;-84
2022/08/23 10:42:03;;;;;;;11.77;3.37;;;35.00;1.00;;;;;;6219259;23;20886;-83
2022/08/23 10:44:40;;;;;;;8.83;3.30;;;34.80;1.00;;;;;;6229758;23;20893;-83
2022/08/23 10:47:23;;;;;;;7.90;2.87;;;35.40;1.00;;;;;;6229062;23;20393;-83
2022/08/23 10:49:52;;;;;;;9.90;3.27;;;35.60;1.00;;;;;;6220231;23;20822;-84
2022/08/23 10:52:24;;;;;;;6.40;2.70;;;36.90;1.00;;;;;;6230870;23;20405;-84
2022/08/23 10:55:05;;;;;;;14.10;3.00;;;36.90;1.00;;;;;;6218751;23;20438;-83
2022/08/23 10:57:35;;;;;;;16.77;3.50;;;37.20;1.00;;;;;;6218096;23;20378;-83
2022/08/23 11:00:06;;;;;;;11.03;3.10;;;36.90;1.00;;;;;;6227504;23;20469;-83
2022/08/23 11:02:44;;;;;;;16.70;4.00;;;36.60;1.00;;;;;;6228554;23;20386;-83
2022/08/23 11:05:20;;;;;;;13.27;3.77;;;36.80;1.00;;;;;;6218043;23;20428;-83
2022/08/23 11:08:00;;;;;;;9.30;3.63;;;36.40;1.00;;;;;;6227707;23;20387;-83
2022/08/23 11:10:33;;;;;;;13.40;3.00;;;36.20;1.00;;;;;;6217081;23;20392;-83
2022/08/23 11:21:55;;;;;;;8.43;3.60;;;36.10;1.00;;;;;;6244963;22;20417;-88
2022/08/23 11:42:25;;;;;;;10.67;2.60;;;34.20;1.00;;;;;;6147456;23;20397;-85
2022/08/23 11:45:25;;;;;;;10.97;3.07;;;34.00;1.00;;;;;;6128689;23;20493;-85
2022/08/23 11:48:21;;;;;;;8.63;2.20;;;35.00;1.00;;;;;;6097041;23;20384;-86
2022/08/23 11:51:26;;;;;;;9.97;3.13;;;35.90;1.00;;;;;;6240954;23;20439;-86
2022/08/23 11:54:23;;;;;;;6.30;2.50;;;36.70;1.00;;;;;;6156569;23;20408;-87
2022/08/23 11:57:18;;;;;;;10.27;4.13;;;35.70;1.00;;;;;;6248510;23;20438;-86
2022/08/23 12:00:03;;;;;;;6.00;2.20;;;36.40;1.00;;;;;;6249392;23;20914;-86
2022/08/23 12:03:10;;;;;;;14.17;3.00;;;36.40;1.00;;;;;;6250508;23;20401;-86
2022/08/23 12:06:23;;;;;;;5.93;2.33;;;37.00;1.00;;;;;;6260241;22;20469;-86
2022/08/23 12:09:24;;;;;;;7.77;2.50;;;37.60;1.00;;;;;;6220255;23;20500;-85
2022/08/23 12:12:41;;;;;;;12.33;2.60;;;37.40;1.00;;;;;;6249606;23;20439;-86
2022/08/23 12:15:12;;;;;;;8.37;2.67;;;37.00;1.00;;;;;;6174675;23;20410;-86
2022/08/23 12:18:13;;;;;;;8.00;2.40;;;36.60;1.00;;;;;;6261981;23;20434;-86
2022/08/23 12:20:42;;;;;;;6.00;1.93;;;35.50;1.00;;;;;;6252160;23;20390;-86
2022/08/23 12:23:30;;;;;;;5.93;2.07;;;34.60;1.00;;;;;;6252015;23;20390;-86
2022/08/23 12:26:07;;;;;;;9.30;2.47;;;35.40;1.00;;;;;;6260233;23;20490;-86
2022/08/23 12:32:30;;;;;;;7.37;2.20;;;37.20;1.00;;;;;;6225745;23;20417;-87
2022/08/23 12:35:23;;;;;;;10.07;2.43;;;35.40;1.00;;;;;;6254031;22;20431;-85
2022/08/23 12:38:38;;;;;;;;;;;;;;;;;;;;;
2022/08/23 12:41:55;;;;;;;;;;;;;;;;;;;;;
2022/08/23 12:44:25;;;;;;;8.67;2.27;;;36.00;1.00;;;;;;6262877;22;20641;-83
2022/08/23 12:46:52;;;;;;;12.03;3.00;;;36.40;1.00;;;;;;6264239;23;20383;-86
2022/08/23 12:49:26;;;;;;;7.30;2.20;;;37.30;1.00;;;;;;6262754;23;20421;-85
2022/08/23 12:51:56;;;;;;;10.77;3.27;;;36.90;1.00;;;;;;6252324;23;20430;-86
2022/08/23 12:54:38;;;;;;;6.63;2.10;;;37.20;1.00;;;;;;6250531;22;20427;-85
2022/08/23 12:57:14;;;;;;;7.00;2.30;;;37.00;1.00;;;;;;6251084;23;20370;-86
2022/08/23 12:59:49;;;;;;;8.50;2.70;;;36.60;1.00;;;;;;6250290;23;20395;-85
2022/08/23 13:02:30;;;;;;;13.50;2.47;;;34.90;1.00;;;;;;6252393;23;20361;-85
2022/08/23 13:07:47;;;;;;;11.17;2.70;;;34.20;1.00;;;;;;6236185;23;20396;-84
2022/08/23 13:10:14;;;;;;;5.80;2.40;;;34.50;1.00;;;;;;6258366;23;20438;-83
2022/08/23 13:12:42;;;;;;;7.20;2.60;;;34.30;1.00;;;;;;6258485;23;20868;-83
2022/08/23 13:15:11;;;;;;;7.53;2.77;;;33.30;1.00;;;;;;6258425;22;20826;-83
2022/08/23 13:17:47;;;;;;;7.10;2.00;;;33.70;1.00;;;;;;6254855;23;20409;-86
2022/08/23 13:20:20;;;;;;;7.20;2.83;;;35.30;1.00;;;;;;6267757;23;20404;-85
2022/08/23 13:23:02;;;;;;;6.87;2.70;;;35.90;1.00;;;;;;6255996;23;20778;-84
2022/08/23 13:25:32;;;;;;;7.80;2.67;;;37.90;1.00;;;;;;6263849;22;20430;-86
2022/08/23 13:28:01;;;;;;;7.20;3.00;;;39.00;1.00;;;;;;6253276;23;20490;-86
2022/08/23 13:34:00;;;;;;;8.27;2.47;;;38.20;1.00;;;;;;6223360;22;20402;-85
2022/08/23 13:37:23;;;;;;;7.07;1.87;;;38.10;1.00;;;;;;6251058;23;20411;-86
2022/08/23 13:43:18;;;;;;;11.67;2.30;;;37.20;1.00;;;;;;6264145;23;20419;-84
2022/08/23 13:45:54;;;;;;;6.50;2.20;;;36.10;1.00;;;;;;6273743;23;20419;-84
2022/08/23 13:48:25;;;;;;;9.43;1.90;;;34.20;1.00;;;;;;6274477;23;20433;-84
2022/08/23 13:54:42;;;;;;;7.93;2.77;;;32.20;1.00;;;;;;6184241;23;20446;-84
2022/08/23 14:01:07;;;;;;;;;;;;;;;;;;;;;
2022/08/23 14:04:09;;;;;;;12.07;3.23;;;35.50;1.00;;;;;;6251406;22;20465;-83
2022/08/23 14:10:06;;;;;;;8.77;2.43;;;36.90;1.00;;;;;;6249710;23;20490;-84
2022/08/23 14:15:22;;;;;;;6.90;2.43;;;38.80;1.00;;;;;;6248709;23;20438;-84
2022/08/23 14:18:11;;;;;;;9.87;2.60;;;39.10;1.00;;;;;;6274390;23;20402;-85
2022/08/23 14:20:43;;;;;;;6.90;2.90;;;37.10;1.00;;;;;;6273508;23;20397;-84
2022/08/23 14:23:10;;;;;;;9.93;3.00;;;35.70;1.00;;;;;;6262225;22;20369;-85
2022/08/23 14:25:39;;;;;;;7.80;2.47;;;35.30;1.00;;;;;;6264223;23;20492;-84
2022/08/23 14:28:08;;;;;;;8.93;3.00;;;35.80;1.00;;;;;;6266434;23;20431;-84
2022/08/23 14:30:37;;;;;;;6.37;2.07;;;37.00;1.00;;;;;;6265374;23;20464;-84
2022/08/23 14:33:04;;;;;;;7.23;2.27;;;36.90;1.00;;;;;;6255682;23;20381;-83
2022/08/23 14:35:53;;;;;;;6.77;1.80;;;36.00;1.00;;;;;;6265136;22;20408;-83
2022/08/23 14:38:24;;;;;;;12.20;2.50;;;36.20;1.00;;;;;;6266716;23;20402;-84
2022/08/23 14:40:57;;;;;;;7.20;2.17;;;36.50;1.00;;;;;;6265590;23;20423;-84
2022/08/23 14:43:25;;;;;;;7.03;2.30;;;36.20;1.00;;;;;;6254934;22;20398;-84
2022/08/23 14:45:59;;;;;;;6.03;1.90;;;35.60;1.00;;;;;;6254753;23;20385;-84
2022/08/23 14:51:33;;;;;;;9.30;2.60;;;34.50;1.00;;;;;;6263714;23;20529;-84
2022/08/23 14:54:02;;;;;;;11.53;2.33;;;35.30;1.00;;;;;;6254019;22;20433;-84
2022/08/23 14:56:31;;;;;;;7.40;1.83;;;37.10;1.00;;;;;;6257185;23;20386;-84
2022/08/23 14:58:57;;;;;;;7.40;1.70;;;37.80;1.00;;;;;;6254032;23;20411;-87
2022/08/23 15:01:24;;;;;;;8.67;1.80;;;38.20;1.00;;;;;;6254324;23;20388;-85
2022/08/23 15:03:52;;;;;;;20.40;2.30;;;38.60;1.00;;;;;;6256807;22;20405;-86
2022/08/23 15:06:20;;;;;;;9.43;1.50;;;37.30;1.00;;;;;;6251545;23;20769;-85
2022/08/23 15:08:47;;;;;;;9.40;1.70;;;37.70;1.00;;;;;;6250778;23;20391;-86
2022/08/23 15:11:15;;;;;;;6.57;1.93;;;37.70;1.00;;;;;;6259156;23;20927;-87
2022/08/23 15:48:50;;;;;;;;;;;;;;;;;;;;;
2022/08/23 16:15:58;;;;;;;7.37;2.10;;;33.60;1.00;;;;;;6072770;23;20787;-86
2022/08/23 16:18:53;;;;;;;8.53;1.80;;;34.40;1.00;;;;;;6073591;23;20443;-86
2022/08/23 17:20:55;;;;;;;6.10;2.17;;;33.10;1.00;;;;;;6257556;23;20409;-86
2022/08/23 18:18:56;;;;;;;5.90;1.43;;;27.50;1.00;;;;;;6285944;22;20491;-83
2022/08/23 18:53:42;;;;;;;4.93;1.80;;;23.70;7.50;;;;;;6279972;22;20423;-85